createdAt,value
2023-06-25T00:01:41.265Z,56.25
2023-06-25T00:04:13.681Z,55.21
2023-06-25T00:06:48.804Z,51.89
2023-06-25T00:09:21.196Z,57.99
2023-06-25T00:11:53.479Z,57.30
2023-06-25T00:14:25.767Z,57.87
2023-06-25T00:16:59.093Z,61.47
2023-06-25T00:19:31.421Z,56.17
2023-06-25T00:22:06.263Z,56.30
2023-06-25T00:24:38.594Z,54.50
2023-06-25T00:27:12.132Z,58.44
2023-06-25T00:29:44.676Z,58.33
2023-06-25T00:32:19.367Z,58.19
2023-06-25T00:34:51.742Z,59.88
2023-06-25T00:37:26.781Z,57.14
2023-06-25T00:39:59.162Z,56.95
2023-06-25T00:42:34.467Z,56.56
2023-06-25T00:45:07.472Z,57.49
2023-06-25T00:47:40.001Z,57.54
2023-06-25T00:50:14.366Z,53.64
2023-06-25T00:52:49.736Z,57.49
2023-06-25T00:55:23.028Z,53.15
2023-06-25T00:57:58.772Z,54.12
2023-06-25T01:00:32.377Z,56.31
2023-06-25T01:03:14.044Z,56.84
2023-06-25T01:06:11.675Z,51.08
2023-06-25T01:08:52.268Z,54.19
2023-06-25T01:11:24.755Z,53.77
2023-06-25T01:14:07.642Z,54.12
2023-06-25T01:16:41.345Z,54.61
2023-06-25T01:19:13.844Z,53.84
2023-06-25T01:21:47.747Z,53.01
2023-06-25T01:24:23.004Z,57.22
2023-06-25T01:26:56.766Z,56.14
2023-06-25T01:29:29.096Z,54.99
2023-06-25T01:32:01.653Z,51.44
2023-06-25T01:34:33.970Z,52.79
2023-06-25T01:37:09.857Z,55.36
2023-06-25T01:39:45.679Z,56.21
2023-06-25T01:42:18.325Z,53.89
2023-06-25T01:44:50.648Z,53.18
2023-06-25T01:47:24.153Z,54.09
2023-06-25T01:49:56.416Z,55.03
2023-06-25T01:52:28.637Z,51.41
2023-06-25T01:55:03.734Z,52.24
2023-06-25T01:57:39.335Z,59.61
2023-06-25T02:00:13.863Z,60.69
2023-06-25T02:02:46.287Z,62.91
2023-06-25T02:05:18.692Z,60.78
2023-06-25T02:07:51.251Z,65.71
2023-06-25T02:10:26.227Z,66.66
2023-06-25T02:12:58.625Z,66.32
2023-06-25T02:15:31.151Z,63.06
2023-06-25T02:18:03.917Z,64.06
2023-06-25T02:20:36.312Z,61.37
2023-06-25T02:23:08.609Z,62.36
2023-06-25T02:25:43.577Z,67.68
2023-06-25T02:28:15.985Z,72.40
2023-06-25T02:30:48.615Z,74.81
2023-06-25T02:33:21.059Z,69.59
2023-06-25T02:35:53.809Z,64.14
2023-06-25T02:38:26.245Z,62.12
2023-06-25T02:41:01.337Z,59.82
2023-06-25T02:43:33.773Z,55.41
2023-06-25T02:46:06.301Z,56.61
2023-06-25T02:48:44.135Z,53.66
2023-06-25T02:51:16.474Z,54.43
2023-06-25T02:53:48.723Z,54.31
2023-06-25T02:56:23.819Z,54.81
2023-06-25T02:58:56.085Z,59.81
2023-06-25T03:01:28.453Z,59.98
2023-06-25T03:04:00.880Z,60.04
2023-06-25T03:06:33.446Z,61.71
2023-06-25T03:09:05.889Z,62.29
2023-06-25T03:11:40.977Z,63.81
2023-06-25T03:14:22.056Z,67.91
2023-06-25T03:17:05.920Z,71.58
2023-06-25T03:19:38.485Z,74.91
2023-06-25T03:22:10.948Z,76.61
2023-06-25T03:24:43.263Z,79.67
2023-06-25T03:27:18.365Z,77.54
2023-06-25T03:29:50.659Z,78.54
2023-06-25T03:32:23.230Z,80.64
2023-06-25T03:34:57.123Z,81.79
2023-06-25T03:37:30.203Z,78.51
2023-06-25T03:40:05.547Z,74.26
2023-06-25T03:42:40.620Z,74.08
2023-06-25T03:45:14.488Z,76.94
2023-06-25T03:47:48.091Z,74.40
2023-06-25T03:50:20.489Z,70.36
2023-06-25T03:52:52.811Z,70.96
2023-06-25T03:55:25.188Z,68.09
2023-06-25T03:58:02.317Z,65.64
2023-06-25T04:00:35.230Z,67.34
2023-06-25T04:03:07.609Z,66.88
2023-06-25T04:05:40.103Z,61.84
2023-06-25T04:08:15.007Z,62.47
2023-06-25T04:10:47.406Z,63.89
2023-06-25T04:13:22.463Z,61.20
2023-06-25T04:15:54.894Z,63.19
2023-06-25T04:18:27.162Z,67.50
2023-06-25T04:20:59.537Z,67.67
2023-06-25T04:23:31.912Z,69.54
2023-06-25T04:26:06.188Z,66.06
2023-06-25T04:28:41.946Z,65.80
2023-06-25T04:31:14.316Z,66.58
2023-06-25T04:33:46.754Z,66.49
2023-06-25T04:36:19.889Z,74.26
2023-06-25T04:38:52.252Z,74.79
2023-06-25T04:41:24.608Z,75.84
2023-06-25T04:43:59.510Z,78.29
2023-06-25T04:46:31.901Z,74.79
2023-06-25T04:49:04.549Z,77.24
2023-06-25T04:51:37.033Z,89.09
2023-06-25T04:54:09.453Z,99.59
2023-06-25T04:56:43.206Z,98.66
2023-06-25T04:59:18.173Z,102.53
2023-06-25T05:01:50.646Z,110.04
2023-06-25T05:04:22.966Z,107.06
2023-06-25T05:06:56.363Z,110.54
2023-06-25T05:09:28.780Z,108.48
2023-06-25T05:12:01.098Z,108.29
2023-06-25T05:14:36.392Z,106.39
2023-06-25T05:17:10.336Z,106.42
2023-06-25T05:19:42.717Z,111.61
2023-06-25T05:22:15.026Z,110.90
2023-06-25T05:24:47.432Z,112.95
2023-06-25T05:27:19.825Z,114.28
2023-06-25T05:29:54.826Z,115.78
2023-06-25T05:32:27.249Z,112.49
2023-06-25T05:34:59.510Z,112.42
2023-06-25T05:37:31.916Z,115.50
2023-06-25T05:40:04.225Z,112.84
2023-06-25T05:42:36.581Z,109.07
2023-06-25T05:45:13.745Z,116.06
2023-06-25T05:47:46.253Z,113.26
2023-06-25T05:50:18.865Z,109.59
2023-06-25T05:52:51.243Z,107.38
2023-06-25T05:55:23.641Z,115.67
2023-06-25T05:57:56.056Z,117.02
2023-06-25T06:00:30.994Z,112.43
2023-06-25T06:03:03.642Z,113.76
2023-06-25T06:05:36.291Z,112.48
2023-06-25T06:08:09.083Z,108.90
2023-06-25T06:10:41.463Z,108.90
2023-06-25T06:13:13.802Z,112.88
2023-06-25T06:15:49.237Z,110.06
2023-06-25T06:18:21.582Z,111.96
2023-06-25T06:20:53.990Z,111.01
2023-06-25T06:23:26.327Z,112.18
2023-06-25T06:25:59.096Z,101.06
2023-06-25T06:28:31.500Z,105.37
2023-06-25T06:31:06.636Z,102.63
2023-06-25T06:33:40.121Z,100.44
2023-06-25T06:36:13.923Z,99.92
2023-06-25T06:38:46.320Z,98.30
2023-06-25T06:41:18.670Z,92.86
2023-06-25T06:43:50.962Z,92.24
2023-06-25T06:46:26.124Z,89.39
2023-06-25T06:48:58.520Z,88.31
2023-06-25T06:51:30.930Z,91.84
2023-06-25T06:54:03.390Z,92.18
2023-06-25T06:56:35.830Z,91.29
2023-06-25T06:59:08.181Z,94.76
2023-06-25T07:01:43.089Z,90.28
2023-06-25T07:04:17.328Z,85.00
2023-06-25T07:06:50.151Z,85.26
2023-06-25T07:09:30.813Z,91.01
2023-06-25T07:12:03.337Z,90.88
2023-06-25T07:14:35.776Z,86.97
2023-06-25T07:17:11.026Z,88.01
2023-06-25T07:19:43.396Z,85.56
2023-06-25T07:22:15.852Z,87.76
2023-06-25T07:24:48.368Z,85.41
2023-06-25T07:27:20.905Z,88.84
2023-06-25T07:29:53.307Z,85.03
2023-06-25T07:32:28.319Z,86.41
2023-06-25T07:35:01.121Z,81.11
2023-06-25T07:37:34.684Z,84.61
2023-06-25T07:40:09.361Z,80.69
2023-06-25T07:42:41.629Z,80.54
2023-06-25T07:45:15.272Z,78.24
2023-06-25T07:47:50.435Z,76.84
2023-06-25T07:50:22.906Z,74.76
2023-06-25T07:52:55.243Z,78.31
2023-06-25T07:55:29.753Z,77.51
2023-06-25T07:58:02.277Z,72.53
2023-06-25T08:00:34.599Z,68.37
2023-06-25T08:03:09.609Z,67.36
2023-06-25T08:05:41.968Z,65.21
2023-06-25T08:08:14.288Z,65.68
2023-06-25T08:10:46.926Z,65.26
2023-06-25T08:13:19.568Z,61.23
2023-06-25T08:15:51.930Z,66.99
2023-06-25T08:18:26.922Z,66.11
2023-06-25T08:20:59.201Z,64.81
2023-06-25T08:23:31.521Z,58.91
2023-06-25T08:26:03.978Z,56.91
2023-06-25T08:28:36.383Z,55.25
2023-06-25T08:31:08.747Z,58.91
2023-06-25T08:33:44.555Z,57.31
2023-06-25T08:36:17.267Z,57.51
2023-06-25T08:38:49.603Z,58.29
2023-06-25T08:41:21.881Z,54.81
2023-06-25T08:43:54.264Z,51.72
2023-06-25T08:46:29.276Z,53.13
2023-06-25T08:49:07.532Z,55.10
2023-06-25T08:51:41.610Z,56.56
2023-06-25T08:54:14.405Z,53.26
2023-06-25T08:56:47.293Z,58.00
2023-06-25T08:59:19.718Z,58.54
2023-06-25T09:01:52.348Z,53.36
2023-06-25T09:04:27.261Z,47.04
2023-06-25T09:07:04.361Z,47.04
2023-06-25T09:09:37.430Z,50.84
2023-06-25T09:12:11.367Z,46.56
2023-06-25T09:14:43.830Z,49.88
2023-06-25T09:17:16.245Z,40.49
2023-06-25T09:19:51.242Z,36.79
2023-06-25T09:22:23.630Z,32.61
2023-06-25T09:24:55.943Z,31.25
2023-06-25T09:27:29.504Z,32.01
2023-06-25T09:30:01.887Z,31.39
2023-06-25T09:32:34.316Z,30.39
2023-06-25T09:35:12.026Z,31.69
2023-06-25T09:37:45.207Z,32.51
2023-06-25T09:40:17.985Z,33.55
2023-06-25T09:42:52.227Z,31.90
2023-06-25T09:45:27.450Z,30.88
2023-06-25T09:48:02.837Z,33.82
2023-06-25T09:50:43.367Z,32.46
2023-06-25T09:53:21.492Z,34.22
2023-06-25T09:55:56.409Z,33.96
2023-06-25T09:58:30.194Z,36.07
2023-06-25T10:01:02.617Z,35.74
2023-06-25T10:03:35.732Z,35.35
2023-06-25T10:06:10.985Z,37.22
2023-06-25T10:08:43.385Z,37.69
2023-06-25T10:11:19.229Z,35.97
2023-06-25T10:13:52.996Z,32.28
2023-06-25T10:16:38.284Z,35.59
2023-06-25T10:19:12.332Z,38.52
2023-06-25T10:21:47.269Z,39.84
2023-06-25T10:24:19.655Z,36.74
2023-06-25T10:26:58.254Z,36.80
2023-06-25T10:29:30.521Z,36.70
2023-06-25T10:32:07.147Z,36.04
2023-06-25T10:34:41.634Z,34.43
2023-06-25T10:37:18.685Z,35.13
2023-06-25T10:39:51.102Z,34.91
2023-06-25T10:42:23.490Z,35.82
2023-06-25T10:44:55.854Z,35.24
2023-06-25T10:47:28.422Z,36.50
2023-06-25T10:50:00.900Z,34.59
2023-06-25T10:52:36.751Z,32.78
2023-06-25T10:55:11.765Z,34.82
2023-06-25T10:57:45.196Z,33.53
2023-06-25T11:00:18.838Z,33.26
2023-06-25T11:02:55.960Z,33.53
2023-06-25T11:05:39.596Z,34.95
2023-06-25T11:08:17.366Z,32.84
2023-06-25T11:10:49.936Z,33.95
2023-06-25T11:13:22.232Z,32.73
2023-06-25T11:15:55.271Z,32.74
2023-06-25T11:18:27.624Z,31.84
2023-06-25T11:21:04.907Z,34.38
2023-06-25T11:23:40.104Z,33.18
2023-06-25T11:26:13.823Z,33.69
2023-06-25T11:28:47.351Z,36.98
2023-06-25T11:31:19.657Z,37.82
2023-06-25T11:33:59.255Z,39.76
2023-06-25T11:36:31.773Z,36.88
2023-06-25T11:39:06.694Z,37.61
2023-06-25T11:41:39.133Z,39.71
2023-06-25T11:44:21.651Z,41.86
2023-06-25T11:46:55.973Z,40.96
2023-06-25T11:49:28.436Z,39.93
2023-06-25T11:52:03.298Z,39.88
2023-06-25T11:54:38.236Z,38.54
2023-06-25T11:57:11.444Z,38.04
2023-06-25T11:59:44.686Z,39.71
2023-06-25T12:02:17.448Z,37.59
2023-06-25T12:04:49.746Z,37.44
2023-06-25T12:07:22.033Z,38.96
2023-06-25T12:09:57.386Z,38.92
2023-06-25T12:12:29.938Z,40.41
2023-06-25T12:15:02.502Z,41.83
2023-06-25T12:17:34.869Z,42.04
2023-06-25T12:20:07.772Z,43.79
2023-06-25T12:22:40.172Z,41.59
2023-06-25T12:25:15.196Z,42.42
2023-06-25T12:27:47.801Z,43.06
2023-06-25T12:30:20.215Z,43.14
2023-06-25T12:32:54.764Z,42.56
2023-06-25T12:35:32.461Z,41.33
2023-06-25T12:38:04.777Z,43.92
2023-06-25T12:40:39.706Z,44.56
2023-06-25T12:43:12.133Z,44.96
2023-06-25T12:45:44.470Z,42.47
2023-06-25T12:48:16.768Z,43.83
2023-06-25T12:50:49.175Z,42.51
2023-06-25T12:53:21.572Z,43.89
2023-06-25T12:55:57.048Z,44.57
2023-06-25T12:58:29.406Z,42.61
2023-06-25T13:01:07.068Z,42.07
2023-06-25T13:03:40.659Z,44.04
2023-06-25T13:06:14.532Z,42.59
2023-06-25T13:08:46.810Z,41.09
2023-06-25T13:11:21.767Z,40.83
2023-06-25T13:13:54.823Z,44.09
2023-06-25T13:16:27.401Z,43.71
2023-06-25T13:19:02.172Z,42.45
2023-06-25T13:21:34.604Z,43.83
2023-06-25T13:24:07.645Z,43.37
2023-06-25T13:26:42.562Z,42.16
2023-06-25T13:29:14.949Z,43.94
2023-06-25T13:31:47.282Z,42.96
2023-06-25T13:34:19.587Z,40.80
2023-06-25T13:36:52.001Z,42.44
2023-06-25T13:39:24.319Z,41.06
2023-06-25T13:41:59.543Z,39.77
2023-06-25T13:44:32.014Z,38.06
2023-06-25T13:47:04.592Z,39.59
2023-06-25T13:49:36.882Z,38.91
2023-06-25T13:52:10.208Z,38.07
2023-06-25T13:54:42.500Z,37.31
2023-06-25T13:57:17.446Z,38.64
2023-06-25T13:59:50.067Z,40.09
2023-06-25T14:02:22.362Z,39.99
2023-06-25T14:04:55.111Z,40.81
2023-06-25T14:07:27.612Z,41.04
2023-06-25T14:10:00.168Z,38.61
2023-06-25T14:12:35.095Z,38.81
2023-06-25T14:15:07.672Z,38.16
2023-06-25T14:17:40.059Z,38.71
2023-06-25T14:20:12.618Z,38.09
2023-06-25T14:22:44.912Z,38.14
2023-06-25T14:25:17.285Z,36.52
2023-06-25T14:27:53.185Z,36.49
2023-06-25T14:30:26.365Z,38.65
2023-06-25T14:32:58.776Z,41.16
2023-06-25T14:35:31.161Z,37.10
2023-06-25T14:38:03.729Z,37.02
2023-06-25T14:40:36.131Z,37.40
2023-06-25T14:43:11.165Z,36.57
2023-06-25T14:45:43.702Z,35.06
2023-06-25T14:48:16.256Z,35.44
2023-06-25T14:50:48.682Z,36.64
2023-06-25T14:53:21.014Z,35.39
2023-06-25T14:55:53.441Z,36.66
2023-06-25T14:58:28.387Z,36.16
2023-06-25T15:01:01.167Z,34.86
2023-06-25T15:03:33.631Z,34.80
2023-06-25T15:06:11.971Z,36.36
2023-06-25T15:08:48.055Z,38.46
2023-06-25T15:11:20.358Z,37.39
2023-06-25T15:13:58.750Z,35.84
2023-06-25T15:16:31.247Z,35.64
2023-06-25T15:19:03.641Z,33.83
2023-06-25T15:21:35.995Z,36.01
2023-06-25T15:24:08.671Z,35.84
2023-06-25T15:26:41.337Z,36.82
2023-06-25T15:29:16.178Z,35.68
2023-06-25T15:31:48.608Z,34.16
2023-06-25T15:34:20.992Z,35.87
2023-06-25T15:36:53.381Z,36.40
2023-06-25T15:39:25.677Z,35.27
2023-06-25T15:41:58.051Z,36.01
2023-06-25T15:44:32.980Z,34.68
2023-06-25T15:47:05.462Z,33.99
2023-06-25T15:49:37.699Z,34.34
2023-06-25T15:52:10.519Z,34.94
2023-06-25T15:54:42.837Z,35.36
2023-06-25T15:57:15.370Z,32.94
2023-06-25T15:59:50.293Z,35.37
2023-06-25T16:02:22.592Z,35.80
2023-06-25T16:04:56.091Z,34.84
2023-06-25T16:07:28.660Z,33.11
2023-06-25T16:10:00.931Z,37.25
2023-06-25T16:12:33.181Z,34.35
2023-06-25T16:15:08.403Z,34.40
2023-06-25T16:17:40.933Z,34.73
2023-06-25T16:20:14.236Z,35.69
2023-06-25T16:22:46.689Z,35.31
2023-06-25T16:25:19.186Z,34.58
2023-06-25T16:27:51.546Z,36.14
2023-06-25T16:30:26.627Z,34.23
2023-06-25T16:32:59.240Z,31.62
2023-06-25T16:35:31.719Z,34.31
2023-06-25T16:38:04.061Z,33.97
2023-06-25T16:40:36.428Z,34.85
2023-06-25T16:43:09.148Z,33.38
2023-06-25T16:45:43.979Z,33.37
2023-06-25T16:48:16.365Z,32.11
2023-06-25T16:50:48.875Z,33.24
2023-06-25T16:53:21.206Z,32.71
2023-06-25T16:55:53.474Z,34.06
2023-06-25T16:58:25.835Z,36.30
2023-06-25T17:01:00.891Z,40.40
2023-06-25T17:03:33.453Z,39.77
2023-06-25T17:06:06.005Z,36.94
2023-06-25T17:08:38.321Z,34.89
2023-06-25T17:11:10.931Z,31.94
2023-06-25T17:13:43.266Z,32.48
2023-06-25T17:16:18.228Z,32.95
2023-06-25T17:18:50.571Z,31.63
2023-06-25T17:21:22.832Z,33.97
2023-06-25T17:23:55.203Z,34.26
2023-06-25T17:26:27.699Z,33.84
2023-06-25T17:29:00.041Z,34.25
2023-06-25T17:31:35.213Z,36.58
2023-06-25T17:34:07.522Z,38.79
2023-06-25T17:36:40.104Z,40.93
2023-06-25T17:39:12.484Z,36.02
2023-06-25T17:41:44.727Z,33.46
2023-06-25T17:44:17.170Z,32.70
2023-06-25T17:46:52.185Z,32.55
2023-06-25T17:49:24.524Z,32.73
2023-06-25T17:51:56.997Z,33.99
2023-06-25T17:54:35.220Z,33.97
2023-06-25T17:57:07.985Z,36.30
2023-06-25T17:59:40.414Z,34.25
2023-06-25T18:02:15.488Z,37.36
2023-06-25T18:04:47.789Z,36.01
2023-06-25T18:07:20.407Z,38.69
2023-06-25T18:09:53.053Z,38.96
2023-06-25T18:12:29.537Z,40.51
2023-06-25T18:15:01.920Z,41.21
2023-06-25T18:17:41.917Z,43.32
2023-06-25T18:20:15.452Z,40.27
2023-06-25T18:22:52.046Z,41.86
2023-06-25T18:25:24.433Z,40.02
2023-06-25T18:27:57.028Z,38.81
2023-06-25T18:30:29.349Z,40.93
2023-06-25T18:33:04.492Z,38.69
2023-06-25T18:35:37.094Z,38.56
2023-06-25T18:38:09.413Z,37.24
2023-06-25T18:40:42.286Z,38.32
2023-06-25T18:43:14.799Z,40.81
2023-06-25T18:45:47.132Z,40.15
2023-06-25T18:48:21.984Z,40.03
2023-06-25T18:50:54.424Z,42.81
2023-06-25T18:53:26.843Z,41.58
2023-06-25T18:56:00.395Z,41.98
2023-06-25T18:58:32.785Z,42.68
2023-06-25T19:01:05.255Z,42.55
2023-06-25T19:03:40.623Z,42.04
2023-06-25T19:06:13.002Z,42.77
2023-06-25T19:08:45.375Z,44.67
2023-06-25T19:11:17.709Z,42.74
2023-06-25T19:13:50.068Z,43.99
2023-06-25T19:16:22.602Z,43.23
2023-06-25T19:18:57.470Z,45.11
2023-06-25T19:21:37.032Z,43.20
2023-06-25T19:24:09.878Z,45.01
2023-06-25T19:26:42.258Z,45.35
2023-06-25T19:29:14.577Z,45.90
2023-06-25T19:31:46.901Z,47.68
2023-06-25T19:34:21.870Z,47.25
2023-06-25T19:36:54.496Z,47.62
2023-06-25T19:39:26.769Z,48.59
2023-06-25T19:41:59.415Z,46.63
2023-06-25T19:44:31.693Z,47.44
2023-06-25T19:47:04.221Z,47.89
2023-06-25T19:49:39.145Z,46.61
2023-06-25T19:52:11.690Z,46.78
2023-06-25T19:54:43.941Z,48.58
2023-06-25T19:57:16.774Z,47.76
2023-06-25T19:59:49.133Z,50.64
2023-06-25T20:02:22.245Z,49.00
2023-06-25T20:04:57.251Z,50.78
2023-06-25T20:07:32.308Z,50.57
2023-06-25T20:10:04.910Z,50.63
2023-06-25T20:12:37.296Z,49.84
2023-06-25T20:15:10.485Z,51.52
2023-06-25T20:17:43.273Z,51.50
2023-06-25T20:20:18.600Z,54.54
2023-06-25T20:22:50.922Z,53.35
2023-06-25T20:25:25.379Z,54.80
2023-06-25T20:27:58.266Z,52.81
2023-06-25T20:30:30.584Z,53.11
2023-06-25T20:33:05.635Z,54.36
2023-06-25T20:35:40.694Z,54.63
2023-06-25T20:38:13.046Z,53.41
2023-06-25T20:40:45.394Z,57.12
2023-06-25T20:43:17.729Z,60.99
2023-06-25T20:45:51.075Z,61.97
2023-06-25T20:48:23.385Z,57.44
2023-06-25T20:50:58.370Z,59.97
2023-06-25T20:53:31.734Z,60.62
2023-06-25T20:56:04.185Z,58.49
2023-06-25T20:58:36.474Z,55.29
2023-06-25T21:01:08.940Z,58.96
2023-06-25T21:03:41.349Z,56.75
2023-06-25T21:06:16.321Z,59.16
2023-06-25T21:08:48.684Z,56.85
2023-06-25T21:11:21.136Z,59.91
2023-06-25T21:13:53.497Z,60.05
2023-06-25T21:16:25.808Z,62.24
2023-06-25T21:18:58.253Z,60.51
2023-06-25T21:21:33.126Z,61.51
2023-06-25T21:24:05.616Z,62.28
2023-06-25T21:26:38.408Z,61.91
2023-06-25T21:29:10.746Z,62.24
2023-06-25T21:31:43.133Z,63.60
2023-06-25T21:34:15.465Z,64.39
2023-06-25T21:36:50.592Z,65.13
2023-06-25T21:39:22.890Z,64.89
2023-06-25T21:41:55.257Z,65.53
2023-06-25T21:44:27.612Z,65.37
2023-06-25T21:47:00.114Z,62.74
2023-06-25T21:49:32.553Z,65.47
2023-06-25T21:52:11.158Z,59.68
2023-06-25T21:54:43.507Z,61.04
2023-06-25T21:57:15.998Z,66.83
2023-06-25T21:59:48.339Z,63.09
2023-06-25T22:02:21.118Z,65.32
2023-06-25T22:04:53.495Z,68.23
2023-06-25T22:07:28.497Z,68.87
2023-06-25T22:10:00.895Z,72.64
2023-06-25T22:12:33.163Z,69.02
2023-06-25T22:15:05.732Z,72.12
2023-06-25T22:17:38.906Z,74.09
2023-06-25T22:20:12.405Z,74.09
2023-06-25T22:22:47.758Z,72.58
2023-06-25T22:25:20.594Z,73.97
2023-06-25T22:27:53.336Z,77.71
2023-06-25T22:30:26.155Z,77.26
2023-06-25T22:32:58.912Z,76.47
2023-06-25T22:35:31.389Z,79.16
2023-06-25T22:38:06.543Z,78.68
2023-06-25T22:40:39.194Z,79.86
2023-06-25T22:43:11.727Z,78.51
2023-06-25T22:45:44.240Z,78.71
2023-06-25T22:48:16.698Z,83.13
2023-06-25T22:50:49.088Z,80.04
2023-06-25T22:53:25.832Z,83.51
2023-06-25T22:55:58.692Z,80.64
2023-06-25T22:58:31.895Z,86.54
2023-06-25T23:01:04.408Z,79.18
2023-06-25T23:03:36.809Z,86.22
2023-06-25T23:06:09.478Z,87.71
2023-06-25T23:08:44.611Z,82.11
2023-06-25T23:11:16.917Z,82.66
2023-06-25T23:13:49.210Z,79.66
2023-06-25T23:16:24.445Z,78.25
2023-06-25T23:18:57.393Z,77.58
2023-06-25T23:21:30.519Z,79.11
2023-06-25T23:24:06.530Z,81.13
2023-06-25T23:26:46.513Z,85.42
2023-06-25T23:29:19.562Z,80.86
2023-06-25T23:31:52.033Z,79.35
2023-06-25T23:34:24.363Z,82.98
2023-06-25T23:36:56.875Z,79.79
2023-06-25T23:39:36.312Z,80.01
2023-06-25T23:42:09.521Z,82.13
2023-06-25T23:44:41.854Z,82.37
2023-06-25T23:47:14.354Z,84.39
2023-06-25T23:49:46.631Z,82.29
2023-06-25T23:52:18.981Z,85.14
2023-06-25T23:54:53.864Z,86.48
2023-06-25T23:57:26.420Z,83.83
2023-06-25T23:59:58.804Z,87.83
